createdAt,value
2019-01-19T00:01:17.388Z,36.53
2019-01-19T00:04:08.762Z,116.50
2019-01-19T00:07:14.588Z,66.37
2019-01-19T00:10:09.015Z,101.33
2019-01-19T00:12:46.539Z,88.17
2019-01-19T00:15:43.423Z,74.53
2019-01-19T00:18:33.088Z,100.63
2019-01-19T00:21:46.420Z,30.97
2019-01-19T00:24:41.617Z,32.87
2019-01-19T00:27:40.565Z,28.70
2019-01-19T00:30:45.353Z,37.60
2019-01-19T00:34:01.066Z,37.20
2019-01-19T00:37:03.676Z,34.93
2019-01-19T00:40:16.873Z,28.07
2019-01-19T00:43:07.069Z,38.70
2019-01-19T00:46:20.096Z,44.00
2019-01-19T00:49:31.203Z,37.90
2019-01-19T00:52:22.187Z,28.83
2019-01-19T00:55:06.597Z,27.20
2019-01-19T00:57:47.727Z,33.20
2019-01-19T01:00:29.175Z,26.57
2019-01-19T01:03:29.228Z,29.03
2019-01-19T01:06:25.223Z,30.43
2019-01-19T01:09:59.823Z,31.80
2019-01-19T01:12:59.974Z,26.77
2019-01-19T01:15:58.635Z,26.40
2019-01-19T01:19:07.864Z,25.57
2019-01-19T01:22:06.110Z,26.40
2019-01-19T01:25:01.974Z,30.13
2019-01-19T01:28:04.113Z,26.23
2019-01-19T01:30:39.918Z,26.77
2019-01-19T01:33:35.990Z,27.23
2019-01-19T01:36:43.227Z,29.37
2019-01-19T01:39:48.440Z,30.07
2019-01-19T01:43:13.517Z,30.43
2019-01-19T01:46:32.862Z,25.73
2019-01-19T01:49:45.228Z,28.10
2019-01-19T01:52:55.972Z,30.37
2019-01-19T01:55:46.091Z,29.80
2019-01-19T01:58:19.694Z,32.73
2019-01-19T02:01:34.598Z,31.93
2019-01-19T02:04:48.969Z,36.33
2019-01-19T02:07:45.224Z,78.67
2019-01-19T02:10:37.503Z,117.83
2019-01-19T02:13:53.233Z,70.00
2019-01-19T02:16:51.942Z,120.80
2019-01-19T02:19:56.275Z,41.50
2019-01-19T02:23:08.954Z,138.00
2019-01-19T02:26:06.648Z,67.17
2019-01-19T02:29:22.553Z,49.30
2019-01-19T02:32:43.781Z,59.67
2019-01-19T02:35:48.372Z,75.93
2019-01-19T02:38:41.967Z,40.27
2019-01-19T02:41:56.324Z,35.60
2019-01-19T02:45:09.983Z,37.67
2019-01-19T02:48:34.024Z,40.43
2019-01-19T02:51:15.484Z,39.33
2019-01-19T02:54:32.742Z,52.03
2019-01-19T02:57:37.546Z,50.53
2019-01-19T03:00:43.422Z,36.60
2019-01-19T03:03:37.116Z,50.50
2019-01-19T03:07:02.940Z,49.83
2019-01-19T03:10:14.871Z,73.03
2019-01-19T03:13:15.534Z,65.20
2019-01-19T03:16:08.122Z,47.00
2019-01-19T03:18:47.711Z,47.57
2019-01-19T03:21:50.137Z,51.07
2019-01-19T03:24:47.664Z,72.27
2019-01-19T03:27:56.570Z,37.30
2019-01-19T03:31:05.739Z,84.97
2019-01-19T03:34:18.851Z,129.33
2019-01-19T03:37:23.873Z,52.13
2019-01-19T03:40:27.059Z,107.53
2019-01-19T03:43:20.351Z,148.33
2019-01-19T03:46:35.641Z,61.67
2019-01-19T03:49:29.893Z,83.97
2019-01-19T03:52:25.148Z,67.33
2019-01-19T03:55:22.539Z,213.43
2019-01-19T03:58:32.627Z,326.77
2019-01-19T04:01:46.222Z,202.10
2019-01-19T04:05:02.034Z,269.80
2019-01-19T04:07:50.554Z,169.07
2019-01-19T04:10:46.176Z,64.57
2019-01-19T04:13:50.819Z,225.87
2019-01-19T04:17:04.018Z,377.67
2019-01-19T04:19:52.087Z,96.53
2019-01-19T04:22:53.519Z,243.37
2019-01-19T04:25:32.644Z,200.57
2019-01-19T04:28:03.649Z,232.30
2019-01-19T04:30:32.663Z,91.83
2019-01-19T04:33:01.730Z,238.60
2019-01-19T04:35:30.813Z,152.00
2019-01-19T04:37:59.865Z,142.17
2019-01-19T04:40:28.946Z,143.30
2019-01-19T04:42:57.963Z,103.37
2019-01-19T04:45:27.355Z,77.20
2019-01-19T04:47:56.394Z,105.70
2019-01-19T04:50:25.748Z,93.60
2019-01-19T04:52:54.739Z,152.20
2019-01-19T04:55:23.761Z,75.43
2019-01-19T04:57:52.818Z,100.47
2019-01-19T05:00:21.848Z,81.47
2019-01-19T05:02:50.918Z,118.40
2019-01-19T05:05:19.975Z,130.90
2019-01-19T05:07:49.025Z,148.50
2019-01-19T05:10:18.088Z,176.70
2019-01-19T05:12:47.192Z,102.57
2019-01-19T05:15:20.988Z,143.27
2019-01-19T05:17:50.338Z,142.87
2019-01-19T05:20:19.351Z,207.77
2019-01-19T05:22:48.380Z,181.87
2019-01-19T05:25:17.431Z,158.87
2019-01-19T05:27:46.449Z,174.90
2019-01-19T05:30:17.752Z,116.20
2019-01-19T05:32:46.859Z,102.60
2019-01-19T05:35:16.059Z,64.40
2019-01-19T05:37:45.119Z,186.20
2019-01-19T05:40:14.526Z,176.90
2019-01-19T05:42:43.547Z,111.07
2019-01-19T05:45:14.526Z,149.03
2019-01-19T05:47:43.911Z,177.57
2019-01-19T05:50:15.837Z,98.80
2019-01-19T05:52:44.888Z,92.33
2019-01-19T05:55:13.954Z,117.90
2019-01-19T05:57:43.019Z,110.70
2019-01-19T06:00:26.617Z,104.67
2019-01-19T06:02:55.651Z,143.43
2019-01-19T06:05:24.958Z,92.83
2019-01-19T06:07:54.013Z,99.43
2019-01-19T06:10:23.101Z,92.07
2019-01-19T06:12:52.154Z,96.90
2019-01-19T06:15:21.177Z,85.87
2019-01-19T06:17:50.245Z,130.90
2019-01-19T06:20:19.295Z,105.03
2019-01-19T06:22:48.622Z,92.87
2019-01-19T06:25:17.917Z,103.93
2019-01-19T06:27:46.934Z,97.50
2019-01-19T06:30:23.817Z,83.60
2019-01-19T06:32:52.836Z,92.77
2019-01-19T06:35:21.848Z,109.17
2019-01-19T06:37:50.943Z,96.33
2019-01-19T06:40:20.119Z,117.13
2019-01-19T06:42:49.124Z,92.60
2019-01-19T06:45:26.153Z,112.57
2019-01-19T06:47:55.218Z,91.17
2019-01-19T06:50:24.250Z,87.77
2019-01-19T06:52:53.317Z,98.77
2019-01-19T06:55:28.263Z,109.37
2019-01-19T06:57:57.594Z,114.30
2019-01-19T07:00:26.730Z,115.63
2019-01-19T07:02:55.759Z,103.57
2019-01-19T07:05:24.774Z,110.97
2019-01-19T07:07:53.860Z,108.97
2019-01-19T07:10:24.063Z,106.17
2019-01-19T07:12:53.139Z,119.60
2019-01-19T07:15:22.208Z,123.73
2019-01-19T07:17:51.212Z,105.70
2019-01-19T07:20:22.701Z,124.47
2019-01-19T07:22:51.774Z,145.53
2019-01-19T07:25:20.805Z,196.77
2019-01-19T07:27:49.858Z,151.60
2019-01-19T07:30:18.919Z,193.57
2019-01-19T07:32:48.010Z,145.10
2019-01-19T07:35:17.131Z,103.03
2019-01-19T07:37:46.145Z,130.47
2019-01-19T07:40:16.578Z,141.00
2019-01-19T07:42:46.269Z,108.93
2019-01-19T07:45:15.908Z,98.97
2019-01-19T07:47:45.813Z,241.17
2019-01-19T07:50:16.560Z,254.90
2019-01-19T07:52:46.273Z,220.70
2019-01-19T07:55:16.272Z,106.83
2019-01-19T07:57:45.556Z,153.60
2019-01-19T08:00:19.755Z,188.20
2019-01-19T08:02:49.092Z,344.87
2019-01-19T08:05:18.106Z,151.30
2019-01-19T08:07:47.126Z,113.80
2019-01-19T08:10:16.994Z,132.43
2019-01-19T08:12:46.017Z,118.60
2019-01-19T08:15:17.240Z,202.37
2019-01-19T08:17:46.466Z,303.10
2019-01-19T08:20:15.516Z,265.23
2019-01-19T08:22:44.618Z,287.60
2019-01-19T08:25:14.002Z,315.13
2019-01-19T08:27:43.030Z,110.77
2019-01-19T08:30:20.866Z,192.93
2019-01-19T08:32:49.878Z,99.67
2019-01-19T08:35:19.285Z,86.00
2019-01-19T08:37:48.733Z,81.87
2019-01-19T08:40:23.207Z,103.13
2019-01-19T08:42:58.705Z,71.93
2019-01-19T08:45:27.728Z,80.83
2019-01-19T08:47:57.133Z,84.30
2019-01-19T08:50:26.224Z,85.20
2019-01-19T08:52:55.233Z,76.10
2019-01-19T08:55:24.295Z,64.40
2019-01-19T08:57:53.333Z,58.50
2019-01-19T09:00:22.349Z,70.47
2019-01-19T09:02:51.419Z,48.20
2019-01-19T09:05:20.657Z,58.47
2019-01-19T09:07:49.710Z,48.47
2019-01-19T09:10:18.878Z,48.83
2019-01-19T09:12:47.917Z,45.03
2019-01-19T09:15:16.951Z,42.10
2019-01-19T09:17:46.098Z,42.60
2019-01-19T09:20:16.091Z,42.10
2019-01-19T09:22:46.889Z,39.10
2019-01-19T09:25:16.064Z,37.90
2019-01-19T09:27:45.097Z,38.67
2019-01-19T09:30:16.829Z,38.27
2019-01-19T09:32:46.217Z,37.93
2019-01-19T09:35:15.282Z,36.87
2019-01-19T09:37:44.290Z,36.60
2019-01-19T09:40:14.410Z,38.60
2019-01-19T09:42:43.601Z,38.93
2019-01-19T09:45:13.542Z,38.90
2019-01-19T09:47:42.576Z,37.43
2019-01-19T09:50:13.799Z,39.10
2019-01-19T09:52:42.840Z,34.90
2019-01-19T09:55:12.097Z,38.90
2019-01-19T09:57:41.114Z,43.17
2019-01-19T10:00:13.256Z,37.13
2019-01-19T10:02:42.284Z,34.83
2019-01-19T10:05:14.573Z,37.93
2019-01-19T10:07:48.429Z,35.43
2019-01-19T10:10:14.788Z,36.63
2019-01-19T10:12:43.902Z,36.27
2019-01-19T10:15:14.124Z,36.30
2019-01-19T10:17:43.186Z,36.07
2019-01-19T10:20:17.751Z,33.63
2019-01-19T10:22:47.022Z,34.07
2019-01-19T10:25:16.450Z,35.33
2019-01-19T10:27:45.487Z,36.40
2019-01-19T10:30:17.457Z,33.77
2019-01-19T10:32:46.466Z,37.03
2019-01-19T10:35:15.601Z,37.00
2019-01-19T10:37:44.856Z,37.77
2019-01-19T10:40:14.165Z,34.57
2019-01-19T10:42:43.412Z,35.67
2019-01-19T10:45:14.996Z,38.43
2019-01-19T10:47:44.106Z,36.77
2019-01-19T10:50:14.875Z,36.93
2019-01-19T10:52:43.939Z,35.23
2019-01-19T10:55:14.545Z,34.00
2019-01-19T10:57:43.569Z,36.63
2019-01-19T11:00:24.007Z,36.63
2019-01-19T11:02:53.404Z,34.23
2019-01-19T11:05:22.591Z,38.13
2019-01-19T11:07:51.654Z,37.63
2019-01-19T11:10:22.701Z,37.10
2019-01-19T11:12:51.810Z,39.37
2019-01-19T11:15:20.901Z,37.17
2019-01-19T11:17:49.966Z,37.77
2019-01-19T11:20:21.233Z,38.73
2019-01-19T11:22:50.649Z,38.53
2019-01-19T11:25:19.696Z,39.37
2019-01-19T11:27:49.128Z,35.13
2019-01-19T11:30:23.368Z,36.23
2019-01-19T11:32:52.735Z,39.43
2019-01-19T11:35:21.953Z,38.10
2019-01-19T11:37:51.001Z,35.17
2019-01-19T11:40:25.446Z,34.13
2019-01-19T11:42:54.466Z,35.27
2019-01-19T11:45:23.873Z,37.90
2019-01-19T11:47:52.894Z,38.10
2019-01-19T11:50:22.821Z,38.53
2019-01-19T11:52:52.034Z,35.17
2019-01-19T11:55:21.315Z,38.80
2019-01-19T11:57:52.726Z,35.73
2019-01-19T12:00:24.001Z,36.23
2019-01-19T12:02:53.064Z,36.53
2019-01-19T12:05:22.220Z,36.27
2019-01-19T12:07:51.417Z,35.10
2019-01-19T12:10:25.779Z,34.03
2019-01-19T12:12:54.825Z,34.83
2019-01-19T12:15:24.038Z,34.87
2019-01-19T12:17:53.096Z,35.63
2019-01-19T12:20:27.694Z,37.20
2019-01-19T12:22:56.792Z,34.83
2019-01-19T12:25:26.048Z,38.03
2019-01-19T12:27:55.171Z,33.83
2019-01-19T12:30:26.566Z,35.57
2019-01-19T12:32:55.823Z,35.07
2019-01-19T12:35:24.936Z,35.80
2019-01-19T12:37:54.179Z,36.30
2019-01-19T12:40:24.343Z,35.37
2019-01-19T12:43:08.557Z,33.87
2019-01-19T12:45:58.423Z,35.90
2019-01-19T12:48:27.493Z,37.50
2019-01-19T12:50:56.892Z,39.00
2019-01-19T12:53:26.278Z,37.23
2019-01-19T12:55:55.335Z,36.43
2019-01-19T12:58:24.508Z,39.20
2019-01-19T13:00:53.560Z,36.70
2019-01-19T13:03:22.581Z,36.00
2019-01-19T13:06:21.419Z,39.27
2019-01-19T13:08:50.634Z,36.93
2019-01-19T13:12:12.903Z,38.10
2019-01-19T13:14:48.746Z,37.60
2019-01-19T13:17:38.899Z,41.63
2019-01-19T13:20:48.804Z,41.13
2019-01-19T13:24:03.400Z,43.03
2019-01-19T13:27:12.489Z,40.37
2019-01-19T13:30:37.141Z,40.93
2019-01-19T13:33:34.395Z,37.13
2019-01-19T13:37:02.584Z,43.10
2019-01-19T13:39:46.462Z,44.23
2019-01-19T13:43:02.833Z,43.67
2019-01-19T13:45:59.097Z,44.97
2019-01-19T13:49:04.448Z,44.40
2019-01-19T13:52:15.551Z,43.67
2019-01-19T13:55:12.607Z,43.23
2019-01-19T13:58:15.055Z,46.07
2019-01-19T14:01:21.006Z,43.70
2019-01-19T14:04:26.275Z,43.63
2019-01-19T14:07:40.753Z,43.00
2019-01-19T14:10:47.090Z,48.67
2019-01-19T14:13:49.192Z,45.00
2019-01-19T14:16:43.329Z,45.73
2019-01-19T14:19:37.351Z,45.20
2019-01-19T14:22:53.181Z,46.27
2019-01-19T14:25:32.686Z,47.43
2019-01-19T14:28:25.629Z,45.87
2019-01-19T14:31:24.601Z,45.83
2019-01-19T14:34:40.709Z,43.43
2019-01-19T14:37:46.460Z,42.70
2019-01-19T14:40:29.739Z,39.83
2019-01-19T14:43:45.115Z,38.80
2019-01-19T14:46:55.514Z,41.30
2019-01-19T14:50:14.420Z,40.87
2019-01-19T14:53:16.763Z,39.57
2019-01-19T14:56:10.994Z,40.77
2019-01-19T14:59:36.147Z,38.93
2019-01-19T15:02:58.561Z,43.80
2019-01-19T15:06:17.621Z,41.17
2019-01-19T15:09:17.905Z,45.60
2019-01-19T15:12:37.776Z,41.20
2019-01-19T15:15:56.366Z,46.80
2019-01-19T15:18:57.033Z,43.20
2019-01-19T15:22:05.617Z,47.50
2019-01-19T15:25:07.435Z,49.13
2019-01-19T15:27:58.058Z,45.77
2019-01-19T15:30:50.915Z,42.67
2019-01-19T15:34:03.174Z,42.57
2019-01-19T15:36:57.504Z,36.53
2019-01-19T15:39:58.659Z,44.30
2019-01-19T15:42:47.817Z,40.57
2019-01-19T15:46:04.841Z,48.20
2019-01-19T15:49:00.813Z,43.37
2019-01-19T15:51:50.857Z,44.13
2019-01-19T15:54:43.586Z,48.97
2019-01-19T15:57:30.280Z,48.60
2019-01-19T16:00:36.782Z,45.93
2019-01-19T16:03:33.244Z,44.20
2019-01-19T16:06:30.959Z,41.73
2019-01-19T16:09:52.249Z,45.37
2019-01-19T16:12:49.924Z,42.93
2019-01-19T16:16:02.277Z,45.43
2019-01-19T16:18:45.923Z,42.33
2019-01-19T16:21:52.056Z,46.60
2019-01-19T16:25:20.473Z,47.00
2019-01-19T16:28:31.399Z,61.67
2019-01-19T16:31:37.690Z,67.13
2019-01-19T16:34:51.304Z,54.10
2019-01-19T16:37:50.379Z,48.93
2019-01-19T16:40:47.227Z,50.70
2019-01-19T16:43:56.783Z,47.80
2019-01-19T16:47:00.811Z,60.60
2019-01-19T16:50:13.083Z,50.00
2019-01-19T16:53:14.283Z,59.77
2019-01-19T16:56:12.902Z,50.37
2019-01-19T16:59:17.767Z,45.50
2019-01-19T17:02:46.204Z,48.80
2019-01-19T17:05:50.042Z,47.90
2019-01-19T17:09:06.266Z,61.27
2019-01-19T17:12:03.428Z,52.87
2019-01-19T17:15:05.809Z,46.20
2019-01-19T17:18:17.607Z,49.80
2019-01-19T17:21:36.674Z,46.63
2019-01-19T17:24:43.918Z,47.70
2019-01-19T17:27:48.216Z,48.00
2019-01-19T17:30:54.959Z,51.10
2019-01-19T17:33:43.362Z,43.20
2019-01-19T17:36:37.789Z,59.10
2019-01-19T17:39:40.345Z,47.20
2019-01-19T17:42:52.556Z,61.37
2019-01-19T17:45:40.370Z,46.50
2019-01-19T17:48:46.959Z,47.80
2019-01-19T17:51:45.613Z,58.73
2019-01-19T17:54:29.771Z,45.40
2019-01-19T17:57:58.195Z,51.20
2019-01-19T18:01:16.002Z,45.07
2019-01-19T18:03:54.114Z,44.83
2019-01-19T18:06:43.030Z,45.83
2019-01-19T18:09:50.713Z,52.60
2019-01-19T18:12:41.880Z,43.90
2019-01-19T18:15:47.094Z,45.00
2019-01-19T18:19:15.525Z,44.87
2019-01-19T18:22:10.879Z,44.03
2019-01-19T18:25:08.651Z,52.03
2019-01-19T18:28:23.765Z,47.20
2019-01-19T18:31:25.274Z,57.40
2019-01-19T18:34:26.475Z,65.77
2019-01-19T18:37:15.987Z,71.70
2019-01-19T18:40:02.291Z,65.00
2019-01-19T18:43:12.076Z,66.90
2019-01-19T18:46:36.382Z,70.27
2019-01-19T18:49:57.057Z,70.03
2019-01-19T18:52:49.174Z,58.80
2019-01-19T18:55:54.191Z,77.33
2019-01-19T18:59:00.269Z,64.23
2019-01-19T19:01:44.280Z,57.10
2019-01-19T19:04:57.205Z,58.73
2019-01-19T19:08:09.717Z,48.77
2019-01-19T19:11:27.783Z,53.07
2019-01-19T19:14:21.713Z,44.33
2019-01-19T19:17:26.879Z,52.20
2019-01-19T19:20:05.879Z,49.30
2019-01-19T19:23:02.084Z,53.40
2019-01-19T19:25:56.087Z,44.77
2019-01-19T19:29:05.771Z,44.03
2019-01-19T19:32:19.349Z,40.50
2019-01-19T19:35:21.959Z,43.20
2019-01-19T19:38:21.439Z,40.60
2019-01-19T19:41:43.506Z,41.93
2019-01-19T19:44:43.436Z,44.53
2019-01-19T19:47:40.757Z,53.03
2019-01-19T19:51:03.056Z,45.73
2019-01-19T19:53:32.118Z,44.73
2019-01-19T19:55:59.609Z,46.03
2019-01-19T19:58:30.597Z,51.20
2019-01-19T20:00:59.780Z,44.73
2019-01-19T20:03:28.839Z,44.93
2019-01-19T20:05:57.918Z,46.43
2019-01-19T20:08:26.943Z,42.73
2019-01-19T20:10:55.991Z,39.30
2019-01-19T20:13:25.053Z,37.40
2019-01-19T20:15:54.133Z,40.70
2019-01-19T20:18:23.150Z,39.30
2019-01-19T20:20:52.224Z,45.10
2019-01-19T20:23:21.246Z,40.10
2019-01-19T20:25:50.309Z,42.40
2019-01-19T20:28:19.305Z,41.93
2019-01-19T20:30:48.326Z,41.13
2019-01-19T20:33:17.352Z,40.27
2019-01-19T20:35:46.430Z,37.73
2019-01-19T20:38:15.451Z,39.00
2019-01-19T20:40:44.479Z,39.10
2019-01-19T20:43:13.473Z,39.57
2019-01-19T20:45:42.498Z,36.70
2019-01-19T20:48:11.604Z,42.43
2019-01-19T20:50:40.696Z,39.50
2019-01-19T20:53:10.051Z,40.87
2019-01-19T20:55:39.092Z,41.57
2019-01-19T20:58:08.160Z,39.40
2019-01-19T21:00:37.191Z,37.70
2019-01-19T21:03:06.250Z,35.63
2019-01-19T21:05:35.315Z,36.00
2019-01-19T21:08:04.373Z,35.23
2019-01-19T21:10:33.428Z,38.80
2019-01-19T21:13:02.479Z,40.20
2019-01-19T21:15:31.501Z,37.03
2019-01-19T21:18:00.584Z,36.10
2019-01-19T21:20:29.611Z,34.87
2019-01-19T21:22:58.558Z,35.23
2019-01-19T21:25:27.638Z,34.30
2019-01-19T21:27:56.711Z,37.33
2019-01-19T21:30:25.742Z,35.63
2019-01-19T21:32:54.769Z,34.47
2019-01-19T21:35:23.822Z,39.70
2019-01-19T21:37:52.885Z,38.00
2019-01-19T21:40:21.957Z,35.73
2019-01-19T21:42:51.025Z,37.17
2019-01-19T21:45:20.703Z,37.77
2019-01-19T21:47:49.703Z,36.50
2019-01-19T21:50:19.973Z,34.13
2019-01-19T21:52:49.000Z,34.17
2019-01-19T21:55:18.067Z,35.73
2019-01-19T21:57:47.099Z,35.90
2019-01-19T22:00:17.554Z,38.00
2019-01-19T22:02:46.612Z,52.83
2019-01-19T22:05:15.941Z,43.40
2019-01-19T22:07:45.004Z,49.73
2019-01-19T22:10:16.185Z,48.43
2019-01-19T22:12:45.241Z,39.43
2019-01-19T22:15:16.269Z,40.17
2019-01-19T22:17:45.408Z,38.97
2019-01-19T22:20:15.543Z,38.63
2019-01-19T22:22:44.564Z,39.30
2019-01-19T22:25:13.726Z,38.60
2019-01-19T22:27:46.726Z,35.50
2019-01-19T22:30:18.006Z,34.47
2019-01-19T22:32:48.035Z,31.57
2019-01-19T22:35:17.093Z,37.00
2019-01-19T22:37:46.141Z,38.20
2019-01-19T22:40:16.597Z,41.97
2019-01-19T22:42:45.640Z,35.60
2019-01-19T22:45:15.956Z,35.90
2019-01-19T22:47:45.116Z,37.40
2019-01-19T22:50:15.429Z,35.47
2019-01-19T22:52:44.551Z,35.30
2019-01-19T22:55:13.689Z,42.70
2019-01-19T22:57:42.707Z,37.27
2019-01-19T23:00:39.567Z,39.27
2019-01-19T23:03:08.693Z,38.03
2019-01-19T23:05:37.871Z,36.73
2019-01-19T23:08:06.910Z,36.37
2019-01-19T23:10:36.062Z,39.80
2019-01-19T23:13:05.232Z,38.73
2019-01-19T23:15:34.303Z,50.50
2019-01-19T23:18:03.329Z,47.30
2019-01-19T23:20:32.396Z,43.33
2019-01-19T23:23:01.469Z,61.10
2019-01-19T23:25:30.491Z,51.37
2019-01-19T23:27:59.518Z,40.63
2019-01-19T23:30:28.583Z,40.23
2019-01-19T23:32:57.613Z,48.80
2019-01-19T23:35:26.680Z,39.53
2019-01-19T23:37:55.707Z,38.90
2019-01-19T23:40:24.787Z,36.63
2019-01-19T23:42:53.819Z,39.30
2019-01-19T23:45:22.843Z,37.97
2019-01-19T23:47:51.905Z,38.47
2019-01-19T23:50:20.989Z,56.47
2019-01-19T23:52:50.031Z,45.10
2019-01-19T23:55:19.100Z,40.97
2019-01-19T23:57:48.162Z,44.17
